ΕΜΥ, Εθνική Μετεωρολογική Υπηρεσία - Δελτία Καιρού, Προγνώσεις

ΑΕΡΟΝΑΥΤΙΛΙΑ

GREEK AIRPORTS CODES

LGIO 200050Z AUTO VRB02KT //// // ////// M05/M07 Q1027 RE//=

EUROPEAN AIRPORTS CODES